Pine View, New Mexico
Current Conditions -  °F | °C
As of 2:15 AM on Thursday 27 Nov 2014 (Local Time) from KSKX Reporting Station
Clear Clear  
Wind Chill: -11°   Ceiling: Unl
Heat Index: -7°   Visibility: 10mi
Dew Point: -9°   Wind: 6mph
Humidity: 86%   Direction: 360°N
Pressure: 30.48"   Gusts: NA
Location:  36.1892°N, 105.688°W
Report Text: KSKX 270915Z AUTO 36005KT 10SM CLR M07/M09 A3048 RMK AO1
Loading
Personal Weather Stations






























Interactive Weather Map New forecast layout! Learn more

10-Day Weather Forecast

Advertisements
Track Severe Weather on mobile